Buoy 44893

sailwx.info

Track history (hours):
 
Tides and Currents Weather Stations Pressure Air Temp Water Temp Dewpoint Dewpoint Depression Visibility Wind Speed Wind Dir Waves Ship Positions

Drifting buoy 44893

Last reported at 2018-Apr-20 22:45 UTC. Time now 2018-Apr-21 00:22 UTC.
Position N 34°59' W 051°50'.

Water temperature 21.2 ° C

Date/timePositionNaut miles runAvg speedWind from/ knotsBaromVisibWave heightAir tempDewpointWater temp
2018-Apr-20 22:45N 34°59' W 051°50'0 2.0 21.2
2018-Apr-20 22:30N 34°59' W 051°50'0 2.0 21.2
2018-Apr-20 22:15N 34°59' W 051°50'1 4.8 21.2
2018-Apr-20 22:00N 34°58' W 051°50'1 4.8 21.2
2018-Apr-20 21:45N 34°59' W 051°50'1 1.6 21.2
2018-Apr-20 21:00N 34°58' W 051°50'0 0.0 21.2
2018-Apr-20 20:45N 34°58' W 051°50'0 0.0 21.2
2018-Apr-20 20:15N 34°58' W 051°50'1 4.6 21.3
2018-Apr-20 20:00N 34°58' W 051°52'2 9.3 21.3
2018-Apr-20 19:45N 34°56' W 051°53'5 3.1 21.3
2018-Apr-20 18:15N 34°52' W 051°56'0 0.0 21.3
2018-Apr-20 18:00N 34°52' W 051°56'0 0.0 21.3
2018-Apr-20 14:45N 34°52' W 051°56'0 0.0 21.1
2018-Apr-20 14:15N 34°52' W 051°56'1 3.1 21.1
2018-Apr-20 14:00N 34°51' W 051°56'0 0.0 21.1
2018-Apr-20 13:15N 34°51' W 051°56'0 0.0 21.1
2018-Apr-20 13:00N 34°51' W 051°56'1 4.8 21.1
2018-Apr-20 12:45N 34°50' W 051°56'0 0.0 21.1
2018-Apr-20 12:30N 34°50' W 051°56'1 3.1 21.0
2018-Apr-20 12:15N 34°49' W 051°57'0 0.0 21.0
2018-Apr-20 11:30N 34°49' W 051°57'0 2.0 21.0
2018-Apr-20 11:15N 34°49' W 051°58'2 7.2 21.0
2018-Apr-20 11:00N 34°47' W 051°58'0 0.0 21.0
2018-Apr-20 09:45N 34°47' W 051°58'2 6.2 21.0
2018-Apr-20 09:30N 34°46' W 051°59'0 0.0 21.0
2018-Apr-20 08:30N 34°46' W 051°59'1 5.2 21.0
2018-Apr-20 08:15N 34°45' W 051°59'1 4.6 21.0
2018-Apr-20 08:00N 34°46' W 051°58'0 0.0 21.0
2018-Apr-20 07:45N 34°46' W 051°58'8 8.2 21.0
2018-Apr-20 06:45N 34°38' W 052°03'0 0.0 21.1
2018-Apr-20 01:45N 34°38' W 052°03'0 0.5 21.1
2018-Apr-20 00:45N 34°38' W 052°04'1 2.4 21.1
2018-Apr-20 00:30N 34°38' W 052°04'0 0.0 21.1
2018-Apr-20 00:15N 34°38' W 052°04'1 5.2 21.1
2018-Apr-20 00:00N 34°37' W 052°04'0 0.0 21.1
2018-Apr-19 23:15N 34°37' W 052°04'1 3.1 21.1
2018-Apr-19 23:00N 34°36' W 052°04'0 2.0 21.1
2018-Apr-19 22:45N 34°36' W 052°04'0 0.0 21.1
2018-Apr-19 22:30N 34°36' W 052°04'2 9.6 21.1
2018-Apr-19 22:15N 34°34' W 052°04'0 0.0 21.1
2018-Apr-19 21:15N 34°34' W 052°04'1 2.4 21.2
2018-Apr-19 21:00N 34°34' W 052°04'1 5.2 21.2
2018-Apr-19 20:45N 34°33' W 052°05'2 2.5 21.2
2018-Apr-19 20:00N 34°31' W 052°05'0 0.0 21.2
2018-Apr-19 18:30N 34°31' W 052°05'417.3 21.2
2018-Apr-19 18:15N 34°27' W 052°07'2 0.5 21.2
2018-Apr-19 14:30N 34°25' W 052°07'0 0.0 21.2
2018-Apr-19 14:15N 34°25' W 052°07'0 0.0 21.1
2018-Apr-19 13:30N 34°25' W 052°07'0 1.0 21.1
2018-Apr-19 13:00N 34°25' W 052°07'1 4.8 21.1
2018-Apr-19 12:45N 34°24' W 052°07'1 1.2 21.1
2018-Apr-19 11:45N 34°23' W 052°08'0 0.0 21.0
2018-Apr-19 11:30N 34°23' W 052°08'2 9.8 21.0
2018-Apr-19 11:15N 34°21' W 052°08'2 1.9 21.0
2018-Apr-19 10:15N 34°19' W 052°09'0 0.0 20.9
2018-Apr-19 10:00N 34°19' W 052°09'0 0.0 20.9
2018-Apr-19 09:45N 34°19' W 052°09'0 0.0 160 / 10 gusting 15 -22.7-29.520.9
2018-Apr-19 08:45N 34°19' W 052°09'312.2 20.9
2018-Apr-19 08:30N 34°16' W 052°08'0 0.0 20.9
2018-Apr-19 08:15N 34°16' W 052°08'10 7.7 20.9
2018-Apr-19 07:00N 34°07' W 052°09'0 0.0 20.9
2018-Apr-19 06:45N 34°07' W 052°09'0 0.0 20.9
2018-Apr-19 02:00N 34°07' W 052°09'0 0.7 20.9
2018-Apr-19 01:15N 34°07' W 052°08'1 2.4 20.9
2018-Apr-19 01:00N 34°06' W 052°08'0 0.0 20.9
2018-Apr-19 00:30N 34°06' W 052°08'2 7.2 20.9
2018-Apr-19 00:15N 34°04' W 052°08'0 0.0 20.9
2018-Apr-18 23:30N 34°04' W 052°08'0 0.0 20.9
2018-Apr-18 23:15N 34°04' W 052°08'312.0 20.9
2018-Apr-18 23:00N 34°01' W 052°08'0 0.0 20.9
2018-Apr-18 22:45N 34°01' W 052°08'2 1.2 20.9
2018-Apr-18 21:15N 33°59' W 052°08'2 2.5 20.9
2018-Apr-18 20:15N 33°57' W 052°08'313.4 20.8
2018-Apr-18 20:00N 34°00' W 052°10'0 0.0 20.8
2018-Apr-18 19:45N 34°00' W 052°10'10 8.2 20.8
2018-Apr-18 18:30N 33°50' W 052°08'0 0.0 20.9
2018-Apr-18 14:45N 33°50' W 052°08'1 0.6 20.7
2018-Apr-18 13:45N 33°49' W 052°08'1 1.2 20.7
2018-Apr-18 13:15N 33°49' W 052°08'1 2.4 20.6
2018-Apr-18 13:00N 33°48' W 052°08'0 0.0 20.6
2018-Apr-18 12:15N 33°48' W 052°08'2 7.2 20.6
2018-Apr-18 12:00N 33°46' W 052°08'1 4.0 20.6
2018-Apr-18 11:45N 33°46' W 052°10'626.0 20.6
2018-Apr-18 11:30N 33°40' W 052°07'0 0.0 20.6
2018-Apr-18 10:45N 33°40' W 052°07'0 0.0 20.6
2018-Apr-18 10:15N 33°40' W 052°07'0 0.0 20.6
2018-Apr-18 10:00N 33°40' W 052°07'0 0.0 20.6
2018-Apr-18 09:45N 33°40' W 052°07'0 0.0 20.6
2018-Apr-18 09:00N 33°40' W 052°07'0 0.0 20.6
2018-Apr-18 07:30N 33°40' W 052°07'0 0.0 20.6
2018-Apr-18 07:15N 33°40' W 052°07'831.3 20.6
2018-Apr-18 07:00N 33°32' W 052°06'1 0.1 20.6
2018-Apr-18 01:30N 33°32' W 052°05'0 0.0 20.7
2018-Apr-18 01:15N 33°32' W 052°05'1 2.6 20.7
2018-Apr-18 00:45N 33°31' W 052°05'2 2.1 20.7
2018-Apr-17 23:45N 33°30' W 052°07'0 0.0 20.7
2018-Apr-17 23:30N 33°30' W 052°07'2 8.0 20.7
2018-Apr-17 23:15N 33°30' W 052°05'2 7.2 20.7
2018-Apr-17 23:00N 33°28' W 052°05'0 0.0 20.7
2018-Apr-17 22:00N 33°28' W 052°05'1 2.4 20.8
2018-Apr-17 21:45N 33°28' W 052°05'1 5.2 20.8
2018-Apr-17 21:30N 33°26' W 052°04'1 5.2 20.8
2018-Apr-17 21:15N 33°28' W 052°05'4 5.6 20.8
2018-Apr-17 20:30N 33°23' W 052°04'0 0.0 20.8
2018-Apr-17 20:15N 33°23' W 052°04'0 0.0 20.8
2018-Apr-17 20:00N 33°23' W 052°04'5 4.0 20.8
2018-Apr-17 18:45N 33°19' W 052°02'0 0.0 20.8
2018-Apr-17 18:30N 33°19' W 052°02'0 0.0 20.8
2018-Apr-17 17:00N 33°19' W 052°02'1 0.5 20.8
2018-Apr-17 14:15N 33°17' W 052°02'0 0.0 20.8
2018-Apr-17 14:00N 33°17' W 052°02'1 2.0 20.8
2018-Apr-17 13:30N 33°17' W 052°01'0 0.0 20.8
2018-Apr-17 13:15N 33°17' W 052°01'2 2.5 20.8
2018-Apr-17 12:30N 33°16' W 052°01'2 2.5 20.7
2018-Apr-17 11:45N 33°14' W 052°01'1 0.4 20.7
2018-Apr-17 10:00N 33°13' W 052°00'0 0.0 20.6
2018-Apr-17 09:30N 33°13' W 052°00'2 3.7 20.6
2018-Apr-17 09:00N 33°11' W 051°59'0 0.0 20.6
2018-Apr-17 08:00N 33°11' W 051°59'0 0.0 20.6
2018-Apr-17 07:45N 33°11' W 051°59'1 2.4 20.6
2018-Apr-17 07:30N 33°12' W 051°59'519.6 20.6
2018-Apr-17 07:15N 33°08' W 051°56'0 0.0 20.6
2018-Apr-17 01:45N 33°08' W 051°56'0 0.0 20.8
2018-Apr-17 01:15N 33°08' W 051°56'1 2.4 20.8
2018-Apr-17 01:00N 33°07' W 051°56'0 0.0 20.8
2018-Apr-17 00:15N 33°07' W 051°56'1 2.0 20.9
2018-Apr-17 00:00N 33°07' W 051°56'1 1.6 20.9
2018-Apr-16 23:30N 33°07' W 051°55'1 2.0 21.0
2018-Apr-16 23:15N 33°07' W 051°56'1 0.7 21.0
2018-Apr-16 22:30N 33°07' W 051°56'0 0.0 21.0
2018-Apr-16 22:15N 33°07' W 051°56'1 2.3 21.0
2018-Apr-16 21:45N 33°06' W 051°55'0 0.0 21.0
2018-Apr-16 21:30N 33°06' W 051°55'2 2.2 21.0
2018-Apr-16 20:45N 33°05' W 051°57'0 0.0 21.1
2018-Apr-16 20:30N 33°05' W 051°57'0 0.0 21.1
2018-Apr-16 19:00N 33°05' W 051°57'0 0.0 21.1
2018-Apr-16 18:45N 33°05' W 051°57'0 0.0 21.1
2018-Apr-16 17:15N 33°05' W 051°57'1 0.5 21.0
2018-Apr-16 14:30N 33°04' W 051°56'0 0.0 20.9
2018-Apr-16 13:45N 33°04' W 051°56'0 0.0 20.8
2018-Apr-16 13:00N 33°04' W 051°56'1 3.1 20.8
2018-Apr-16 12:45N 33°04' W 051°57'0 0.0 20.8
2018-Apr-16 12:15N 33°04' W 051°57'1 2.0 20.7
2018-Apr-16 12:00N 33°04' W 051°58'1 3.1 20.7
2018-Apr-16 11:45N 33°03' W 051°58'0 0.0 20.7
2018-Apr-16 11:15N 33°03' W 051°58'0 0.0 20.7
2018-Apr-16 11:00N 33°03' W 051°58'1 1.0 20.7
2018-Apr-16 10:15N 33°02' W 051°59'1 2.0 20.6
2018-Apr-16 10:00N 33°02' W 051°58'0 0.0 20.6
2018-Apr-16 09:30N 33°02' W 051°58'1 3.1 20.6
2018-Apr-16 09:15N 33°02' W 051°59'0 0.0 20.6
2018-Apr-16 08:30N 33°02' W 051°59'1 2.0 20.6
2018-Apr-16 08:15N 33°02' W 051°59'0 0.0 20.6
2018-Apr-16 07:45N 33°02' W 051°59'415.4 20.6
2018-Apr-16 07:30N 32°59' W 052°03'0 0.0 20.6
2018-Apr-16 06:00N 32°59' W 052°03'0 0.0 20.6
2018-Apr-16 05:45N 32°59' W 052°03'0 0.0 20.6
2018-Apr-16 02:15N 32°59' W 052°03'0 0.0 20.6
2018-Apr-16 02:00N 32°59' W 052°03'0 0.0 20.6
2018-Apr-16 01:30N 32°59' W 052°03'2 7.7 20.6
2018-Apr-16 01:15N 32°58' W 052°05'1 1.0 20.6
2018-Apr-16 00:30N 32°58' W 052°04'0 0.0 20.6
2018-Apr-16 00:15N 32°58' W 052°04'1 1.6 20.6
2018-Apr-15 23:45N 32°58' W 052°04'1 2.0 20.6
2018-Apr-15 23:30N 32°58' W 052°04'1 1.6 20.6
2018-Apr-15 22:45N 32°57' W 052°04'0 0.0 20.6
2018-Apr-15 22:00N 32°57' W 052°04'0 0.0 20.7
2018-Apr-15 21:45N 32°57' W 052°04'1 1.2 20.7
2018-Apr-15 21:15N 32°58' W 052°04'1 3.1 20.7
2018-Apr-15 21:00N 32°57' W 052°05'0 0.0 20.7
2018-Apr-15 19:15N 32°57' W 052°05'1 4.0 20.8
2018-Apr-15 19:00N 32°57' W 052°06'0 0.0 20.8
2018-Apr-15 17:30N 32°57' W 052°06'0 0.0 20.8
2018-Apr-15 17:15N 32°57' W 052°06'2 0.8 20.8
2018-Apr-15 14:45N 32°56' W 052°08'0 0.0 20.7
2018-Apr-15 14:15N 32°56' W 052°08'1 4.0 20.7
2018-Apr-15 14:00N 32°56' W 052°10'0 0.0 20.7
2018-Apr-15 13:15N 32°56' W 052°10'0 0.0 20.6
2018-Apr-15 13:00N 32°56' W 052°10'1 1.6 20.6
2018-Apr-15 12:30N 32°56' W 052°10'0 0.0 20.5
2018-Apr-15 12:15N 32°56' W 052°10'1 2.4 20.5
2018-Apr-15 12:00N 32°56' W 052°10'2 4.7 20.5
2018-Apr-15 11:30N 32°55' W 052°13'1 0.5 20.4
2018-Apr-15 10:30N 32°55' W 052°12'0 0.0 20.4
2018-Apr-15 10:15N 32°55' W 052°12'0 0.0 20.4
2018-Apr-15 10:00N 32°55' W 052°12'1 2.0 20.4
2018-Apr-15 09:45N 32°55' W 052°13'1 2.4 20.4
2018-Apr-15 09:30N 32°55' W 052°13'0 0.0 20.4
2018-Apr-15 09:15N 32°55' W 052°13'0 0.0 20.4
2018-Apr-15 09:00N 32°55' W 052°13'0 0.0 20.4
2018-Apr-15 08:45N 32°55' W 052°13'5 5.1 20.4
2018-Apr-15 07:45N 32°52' W 052°18'0 0.0 20.4
2018-Apr-15 07:15N 32°52' W 052°18'0 0.0 20.4
2018-Apr-15 06:00N 32°52' W 052°18'1 0.1 20.5
2018-Apr-15 01:45N 32°52' W 052°18'0 0.0 20.6
2018-Apr-15 01:00N 32°52' W 052°18'1 4.0 20.6
2018-Apr-15 00:45N 32°52' W 052°19'0 0.0 20.6
2018-Apr-15 00:15N 32°52' W 052°19'1 2.0 20.6
2018-Apr-15 00:00N 32°52' W 052°19'1 2.0 20.6
2018-Apr-14 23:45N 32°52' W 052°19'1 1.6 20.7
2018-Apr-14 23:15N 32°51' W 052°20'0 0.0 20.7
2018-Apr-14 23:00N 32°51' W 052°20'0 0.0 20.7
2018-Apr-14 22:00N 32°51' W 052°20'0 0.0 20.7
2018-Apr-14 21:45N 32°51' W 052°20'0 0.0 20.8
2018-Apr-14 21:30N 32°51' W 052°20'0 0.0 20.8
2018-Apr-14 20:00N 32°51' W 052°20'0 0.0 20.9
2018-Apr-14 19:45N 32°51' W 052°20'0 0.0 20.9
2018-Apr-14 19:30N 32°51' W 052°20'1 2.0 20.9
2018-Apr-14 19:15N 32°51' W 052°20'2 1.0 20.9
2018-Apr-14 17:45N 32°52' W 052°22'0 0.0 20.8
2018-Apr-14 17:30N 32°52' W 052°22'1 0.3 20.8
2018-Apr-14 14:30N 32°52' W 052°22'0 0.0 20.4
2018-Apr-14 13:30N 32°52' W 052°22'1 1.6 20.4
2018-Apr-14 13:00N 32°52' W 052°23'1 2.4 20.4
2018-Apr-14 12:45N 32°52' W 052°23'0 0.0 20.4
2018-Apr-14 12:30N 32°52' W 052°23'1 3.1 20.4
2018-Apr-14 12:15N 32°52' W 052°23'1 2.0 20.4
2018-Apr-14 12:00N 32°52' W 052°23'2 6.5 20.4
2018-Apr-14 11:45N 32°52' W 052°25'1 0.5 20.4
2018-Apr-14 10:45N 32°52' W 052°25'1 1.0 20.4
2018-Apr-14 10:15N 32°52' W 052°26'0 0.0 20.4
2018-Apr-14 09:30N 32°52' W 052°26'1 4.0 20.4
2018-Apr-14 09:15N 32°52' W 052°27'0 0.0 20.4
2018-Apr-14 08:30N 32°52' W 052°27'0 0.0 20.4
2018-Apr-14 08:00N 32°52' W 052°27'2 6.3 20.4
2018-Apr-14 07:45N 32°50' W 052°28'2 1.0 20.4
2018-Apr-14 06:15N 32°52' W 052°29'1 0.1 20.4
2018-Apr-14 01:15N 32°52' W 052°30'1 2.4 20.5
2018-Apr-14 01:00N 32°52' W 052°30'0 0.0 20.5
2018-Apr-14 00:30N 32°52' W 052°30'0 0.0 20.5
2018-Apr-14 00:15N 32°52' W 052°30'0 0.0 20.5
2018-Apr-14 00:00N 32°52' W 052°30'1 3.1 20.5
2018-Apr-13 23:45N 32°53' W 052°31'0 0.0 20.5
2018-Apr-13 23:30N 32°53' W 052°31'0 0.0 20.5
2018-Apr-13 22:15N 32°53' W 052°31'0 0.0
2018-Apr-13 22:00N 32°53' W 052°31'1 5.2
2018-Apr-13 21:45N 32°54' W 052°30'2 1.3
2018-Apr-13 20:30N 32°53' W 052°32'0 0.0 20.7
2018-Apr-13 20:15N 32°53' W 052°32'1 1.0 20.7
2018-Apr-13 19:30N 32°54' W 052°32'0 0.0 20.7
2018-Apr-13 18:00N 32°54' W 052°32'311.3 20.7
2018-Apr-13 17:45N 32°56' W 052°34'0 0.0 20.7
2018-Apr-13 15:00N 32°56' W 052°34'0 0.0 20.6
2018-Apr-13 14:45N 32°56' W 052°34'1 1.6 20.6
2018-Apr-13 14:00N 32°56' W 052°35'1 2.0 20.6
2018-Apr-13 13:45N 32°56' W 052°36'0 0.0 20.6
2018-Apr-13 13:15N 32°56' W 052°36'0 0.0 20.5
2018-Apr-13 13:00N 32°56' W 052°36'1 2.3 20.5
2018-Apr-13 12:30N 32°55' W 052°37'0 0.0 20.4
2018-Apr-13 12:15N 32°55' W 052°37'0 0.0 20.4
2018-Apr-13 12:00N 32°55' W 052°37'0 0.0 20.4
2018-Apr-13 11:00N 32°55' W 052°37'1 2.0 20.4
2018-Apr-13 10:45N 32°55' W 052°37'0 0.0 20.4
2018-Apr-13 10:30N 32°55' W 052°37'1 2.0 20.4
2018-Apr-13 10:00N 32°55' W 052°38'1 2.0 20.4
2018-Apr-13 09:45N 32°55' W 052°37'1 0.9 20.4
2018-Apr-13 08:15N 32°56' W 052°38'0 0.0 20.4
2018-Apr-13 08:00N 32°56' W 052°38'2 1.4 20.4
2018-Apr-13 06:30N 32°57' W 052°40'0 0.0 20.4
2018-Apr-13 06:15N 32°57' W 052°40'1 0.1 20.4
2018-Apr-13 01:30N 32°58' W 052°40'1 1.0 20.5
2018-Apr-13 00:45N 32°58' W 052°41'0 0.0 20.5
2018-Apr-13 00:15N 32°58' W 052°41'2 6.0 20.5
2018-Apr-13 00:00N 32°58' W 052°43'0 0.0 20.5
2018-Apr-12 23:45N 32°58' W 052°43'0 0.0 20.5
2018-Apr-12 23:15N 32°58' W 052°43'0 0.0 20.5
2018-Apr-12 23:00N 32°58' W 052°43'1 2.4 20.5
2018-Apr-12 22:45N 32°59' W 052°43'1 3.1 20.5
2018-Apr-12 22:30N 32°58' W 052°42'1 4.0 20.5
2018-Apr-12 22:15N 32°58' W 052°43'0 0.0 20.5
2018-Apr-12 21:00N 32°58' W 052°43'2 8.1 20.5
2018-Apr-12 20:45N 32°58' W 052°46'2 1.6 20.5
2018-Apr-12 19:45N 32°58' W 052°47'0 0.0 20.5
2018-Apr-12 19:30N 32°58' W 052°47'6 3.7 20.5
2018-Apr-12 18:00N 32°57' W 052°54'2 0.5 20.5
2018-Apr-12 15:00N 32°56' W 052°55'0 0.0 20.5
2018-Apr-12 14:15N 32°56' W 052°55'1 1.0 20.4
2018-Apr-12 13:30N 32°55' W 052°56'1 1.0 20.4
2018-Apr-12 12:45N 32°56' W 052°55'311.2 20.4
2018-Apr-12 12:30N 32°55' W 052°58'0 0.0 20.4
2018-Apr-12 12:00N 32°55' W 052°58'0 0.0 20.4
2018-Apr-12 11:45N 32°55' W 052°58'0 0.0 20.4
2018-Apr-12 11:15N 32°55' W 052°58'2 8.4 20.4
2018-Apr-12 11:00N 32°54' W 053°01'1 1.6 20.4
2018-Apr-12 10:30N 32°53' W 053°01'1 3.1 20.4
2018-Apr-12 10:15N 32°54' W 053°01'1 1.0 20.4
2018-Apr-12 09:30N 32°53' W 053°01'1 0.8 20.4
2018-Apr-12 08:45N 32°54' W 053°01'0 0.0 20.4
2018-Apr-12 08:30N 32°54' W 053°01'2 7.7 20.4
2018-Apr-12 08:15N 32°53' W 053°03'0 0.0 20.4
2018-Apr-12 07:15N 32°53' W 053°03'0 0.0 20.4
2018-Apr-12 06:45N 32°53' W 053°03'416.1 20.4
2018-Apr-12 06:30N 32°53' W 053°08'0 0.0 20.4
2018-Apr-12 01:15N 32°53' W 053°08'2 6.5 20.6
2018-Apr-12 01:00N 32°53' W 053°10'0 0.0 20.6
2018-Apr-12 00:15N 32°53' W 053°10'1 1.6 20.6
2018-Apr-11 23:30N 32°55' W 053°10'0 0.0 20.7
2018-Apr-11 23:15N 32°55' W 053°10'2 3.1 20.7
2018-Apr-11 22:45N 32°53' W 053°11'1 3.1 20.7
2018-Apr-11 22:30N 32°54' W 053°11'2 2.0 20.7
2018-Apr-11 21:45N 32°54' W 053°13'0 0.0 20.7
2018-Apr-11 21:30N 32°54' W 053°13'0 0.0 20.7
2018-Apr-11 21:15N 32°54' W 053°13'1 4.0 20.7
2018-Apr-11 21:00N 32°54' W 053°14'0 0.0 20.7
2018-Apr-11 20:00N 32°54' W 053°14'2 6.5 20.7
2018-Apr-11 19:45N 32°55' W 053°16'5 3.4 20.7
2018-Apr-11 18:15N 32°55' W 053°22'0 0.0 20.7
2018-Apr-11 18:00N 32°55' W 053°22'1 0.2 20.7
2018-Apr-11 14:30N 32°54' W 053°22'2 3.0 20.6
2018-Apr-11 14:00N 32°54' W 053°24'0 0.0 20.6
2018-Apr-11 13:45N 32°54' W 053°24'1 1.0 20.6
2018-Apr-11 13:00N 32°55' W 053°23'2 6.3 20.6
2018-Apr-11 12:45N 32°53' W 053°25'1 2.0 20.6
2018-Apr-11 12:15N 32°53' W 053°26'0 0.0 20.6
2018-Apr-11 12:00N 32°53' W 053°26'0 0.0 20.6
2018-Apr-11 11:30N 32°53' W 053°26'2 6.0 20.6
2018-Apr-11 11:15N 32°53' W 053°28'0 0.0 20.6
2018-Apr-11 11:00N 32°53' W 053°28'0 0.0 20.6
2018-Apr-11 10:00N 32°53' W 053°28'1 2.0 20.5
2018-Apr-11 09:45N 32°53' W 053°28'0 0.0 20.5
2018-Apr-11 09:30N 32°53' W 053°28'1 4.7 20.5
2018-Apr-11 09:15N 32°54' W 053°29'1 1.0 20.5
2018-Apr-11 08:30N 32°55' W 053°30'0 0.0 20.5
2018-Apr-11 07:45N 32°55' W 053°30'0 0.0 20.5
2018-Apr-11 07:30N 32°55' W 053°30'1 2.3 20.5
2018-Apr-11 07:00N 32°54' W 053°31'313.0 20.5
2018-Apr-11 06:45N 32°55' W 053°35'0 0.0 20.5
2018-Apr-11 02:15N 32°55' W 053°35'1 0.7 20.5
2018-Apr-11 01:30N 32°55' W 053°35'0 0.0 20.5
2018-Apr-11 00:30N 32°55' W 053°35'1 1.2 20.6
2018-Apr-11 00:00N 32°56' W 053°35'1 3.1 20.6
2018-Apr-10 23:45N 32°56' W 053°36'2 2.2 20.6
2018-Apr-10 23:00N 32°57' W 053°38'0 0.0 20.6
2018-Apr-10 22:45N 32°57' W 053°38'   20.6
Track history (hours):
 
Tides and Currents Weather Stations Pressure Air Temp Water Temp Dewpoint Dewpoint Depression Visibility Wind Speed Wind Dir Waves Ship Positions

Drifting buoy 44893

Last reported at 2018-Apr-20 22:45 UTC. Time now 2018-Apr-21 00:22 UTC.
Position N 34°59' W 051°50'.

Water temperature 21.2 ° C

Date/timePositionNaut miles runAvg speedWind from/ knotsBaromVisibWave heightAir tempDewpointWater temp
2018-Apr-20 22:45N 34°59' W 051°50'0 2.0 21.2
2018-Apr-20 22:30N 34°59' W 051°50'0 2.0 21.2
2018-Apr-20 22:15N 34°59' W 051°50'1 4.8 21.2
2018-Apr-20 22:00N 34°58' W 051°50'1 4.8 21.2
2018-Apr-20 21:45N 34°59' W 051°50'1 1.6 21.2
2018-Apr-20 21:00N 34°58' W 051°50'0 0.0 21.2
2018-Apr-20 20:45N 34°58' W 051°50'0 0.0 21.2
2018-Apr-20 20:15N 34°58' W 051°50'1 4.6 21.3
2018-Apr-20 20:00N 34°58' W 051°52'2 9.3 21.3
2018-Apr-20 19:45N 34°56' W 051°53'5 3.1 21.3
2018-Apr-20 18:15N 34°52' W 051°56'0 0.0 21.3
2018-Apr-20 18:00N 34°52' W 051°56'0 0.0 21.3
2018-Apr-20 14:45N 34°52' W 051°56'0 0.0 21.1
2018-Apr-20 14:15N 34°52' W 051°56'1 3.1 21.1
2018-Apr-20 14:00N 34°51' W 051°56'0 0.0 21.1
2018-Apr-20 13:15N 34°51' W 051°56'0 0.0 21.1
2018-Apr-20 13:00N 34°51' W 051°56'1 4.8 21.1
2018-Apr-20 12:45N 34°50' W 051°56'0 0.0 21.1
2018-Apr-20 12:30N 34°50' W 051°56'1 3.1 21.0
2018-Apr-20 12:15N 34°49' W 051°57'0 0.0 21.0
2018-Apr-20 11:30N 34°49' W 051°57'0 2.0 21.0
2018-Apr-20 11:15N 34°49' W 051°58'2 7.2 21.0
2018-Apr-20 11:00N 34°47' W 051°58'0 0.0 21.0
2018-Apr-20 09:45N 34°47' W 051°58'2 6.2 21.0
2018-Apr-20 09:30N 34°46' W 051°59'0 0.0 21.0
2018-Apr-20 08:30N 34°46' W 051°59'1 5.2 21.0
2018-Apr-20 08:15N 34°45' W 051°59'1 4.6 21.0
2018-Apr-20 08:00N 34°46' W 051°58'0 0.0 21.0
2018-Apr-20 07:45N 34°46' W 051°58'8 8.2 21.0
2018-Apr-20 06:45N 34°38' W 052°03'0 0.0 21.1
2018-Apr-20 01:45N 34°38' W 052°03'0 0.5 21.1
2018-Apr-20 00:45N 34°38' W 052°04'1 2.4 21.1
2018-Apr-20 00:30N 34°38' W 052°04'0 0.0 21.1
2018-Apr-20 00:15N 34°38' W 052°04'1 5.2 21.1
2018-Apr-20 00:00N 34°37' W 052°04'0 0.0 21.1
2018-Apr-19 23:15N 34°37' W 052°04'1 3.1 21.1
2018-Apr-19 23:00N 34°36' W 052°04'0 2.0 21.1
2018-Apr-19 22:45N 34°36' W 052°04'0 0.0 21.1
2018-Apr-19 22:30N 34°36' W 052°04'2 9.6 21.1
2018-Apr-19 22:15N 34°34' W 052°04'0 0.0 21.1
2018-Apr-19 21:15N 34°34' W 052°04'1 2.4 21.2
2018-Apr-19 21:00N 34°34' W 052°04'1 5.2 21.2
2018-Apr-19 20:45N 34°33' W 052°05'2 2.5 21.2
2018-Apr-19 20:00N 34°31' W 052°05'0 0.0 21.2
2018-Apr-19 18:30N 34°31' W 052°05'417.3 21.2
2018-Apr-19 18:15N 34°27' W 052°07'2 0.5 21.2
2018-Apr-19 14:30N 34°25' W 052°07'0 0.0 21.2
2018-Apr-19 14:15N 34°25' W 052°07'0 0.0 21.1
2018-Apr-19 13:30N 34°25' W 052°07'0 1.0 21.1
2018-Apr-19 13:00N 34°25' W 052°07'1 4.8 21.1
2018-Apr-19 12:45N 34°24' W 052°07'1 1.2 21.1
2018-Apr-19 11:45N 34°23' W 052°08'0 0.0 21.0
2018-Apr-19 11:30N 34°23' W 052°08'2 9.8 21.0
2018-Apr-19 11:15N 34°21' W 052°08'2 1.9 21.0
2018-Apr-19 10:15N 34°19' W 052°09'0 0.0 20.9
2018-Apr-19 10:00N 34°19' W 052°09'0 0.0 20.9
2018-Apr-19 09:45N 34°19' W 052°09'0 0.0 160 / 10 gusting 15 -22.7-29.520.9
2018-Apr-19 08:45N 34°19' W 052°09'312.2 20.9
2018-Apr-19 08:30N 34°16' W 052°08'0 0.0 20.9
2018-Apr-19 08:15N 34°16' W 052°08'10 7.7 20.9
2018-Apr-19 07:00N 34°07' W 052°09'0 0.0 20.9
2018-Apr-19 06:45N 34°07' W 052°09'0 0.0 20.9
2018-Apr-19 02:00N 34°07' W 052°09'0 0.7 20.9
2018-Apr-19 01:15N 34°07' W 052°08'1 2.4 20.9
2018-Apr-19 01:00N 34°06' W 052°08'0 0.0 20.9
2018-Apr-19 00:30N 34°06' W 052°08'2 7.2 20.9
2018-Apr-19 00:15N 34°04' W 052°08'0 0.0 20.9
2018-Apr-18 23:30N 34°04' W 052°08'0 0.0 20.9
2018-Apr-18 23:15N 34°04' W 052°08'312.0 20.9
2018-Apr-18 23:00N 34°01' W 052°08'0 0.0 20.9
2018-Apr-18 22:45N 34°01' W 052°08'2 1.2 20.9
2018-Apr-18 21:15N 33°59' W 052°08'2 2.5 20.9
2018-Apr-18 20:15N 33°57' W 052°08'313.4 20.8
2018-Apr-18 20:00N 34°00' W 052°10'0 0.0 20.8
2018-Apr-18 19:45N 34°00' W 052°10'10 8.2 20.8
2018-Apr-18 18:30N 33°50' W 052°08'0 0.0 20.9
2018-Apr-18 14:45N 33°50' W 052°08'1 0.6 20.7
2018-Apr-18 13:45N 33°49' W 052°08'1 1.2 20.7
2018-Apr-18 13:15N 33°49' W 052°08'1 2.4 20.6
2018-Apr-18 13:00N 33°48' W 052°08'0 0.0 20.6
2018-Apr-18 12:15N 33°48' W 052°08'2 7.2 20.6
2018-Apr-18 12:00N 33°46' W 052°08'1 4.0 20.6
2018-Apr-18 11:45N 33°46' W 052°10'626.0 20.6
2018-Apr-18 11:30N 33°40' W 052°07'0 0.0 20.6
2018-Apr-18 10:45N 33°40' W 052°07'0 0.0 20.6
2018-Apr-18 10:15N 33°40' W 052°07'0 0.0 20.6
2018-Apr-18 10:00N 33°40' W 052°07'0 0.0 20.6
2018-Apr-18 09:45N 33°40' W 052°07'0 0.0 20.6
2018-Apr-18 09:00N 33°40' W 052°07'0 0.0 20.6
2018-Apr-18 07:30N 33°40' W 052°07'0 0.0 20.6
2018-Apr-18 07:15N 33°40' W 052°07'831.3 20.6
2018-Apr-18 07:00N 33°32' W 052°06'1 0.1 20.6
2018-Apr-18 01:30N 33°32' W 052°05'0 0.0 20.7
2018-Apr-18 01:15N 33°32' W 052°05'1 2.6 20.7
2018-Apr-18 00:45N 33°31' W 052°05'2 2.1 20.7
2018-Apr-17 23:45N 33°30' W 052°07'0 0.0 20.7
2018-Apr-17 23:30N 33°30' W 052°07'2 8.0 20.7
2018-Apr-17 23:15N 33°30' W 052°05'2 7.2 20.7
2018-Apr-17 23:00N 33°28' W 052°05'0 0.0 20.7
2018-Apr-17 22:00N 33°28' W 052°05'1 2.4 20.8
2018-Apr-17 21:45N 33°28' W 052°05'1 5.2 20.8
2018-Apr-17 21:30N 33°26' W 052°04'1 5.2 20.8
2018-Apr-17 21:15N 33°28' W 052°05'4 5.6 20.8
2018-Apr-17 20:30N 33°23' W 052°04'0 0.0 20.8
2018-Apr-17 20:15N 33°23' W 052°04'0 0.0 20.8
2018-Apr-17 20:00N 33°23' W 052°04'5 4.0 20.8
2018-Apr-17 18:45N 33°19' W 052°02'0 0.0 20.8
2018-Apr-17 18:30N 33°19' W 052°02'0 0.0 20.8
2018-Apr-17 17:00N 33°19' W 052°02'1 0.5 20.8
2018-Apr-17 14:15N 33°17' W 052°02'0 0.0 20.8
2018-Apr-17 14:00N 33°17' W 052°02'1 2.0 20.8
2018-Apr-17 13:30N 33°17' W 052°01'0 0.0 20.8
2018-Apr-17 13:15N 33°17' W 052°01'2 2.5 20.8
2018-Apr-17 12:30N 33°16' W 052°01'2 2.5 20.7
2018-Apr-17 11:45N 33°14' W 052°01'1 0.4 20.7
2018-Apr-17 10:00N 33°13' W 052°00'0 0.0 20.6
2018-Apr-17 09:30N 33°13' W 052°00'2 3.7 20.6
2018-Apr-17 09:00N 33°11' W 051°59'0 0.0 20.6
2018-Apr-17 08:00N 33°11' W 051°59'0 0.0 20.6
2018-Apr-17 07:45N 33°11' W 051°59'1 2.4 20.6
2018-Apr-17 07:30N 33°12' W 051°59'519.6 20.6
2018-Apr-17 07:15N 33°08' W 051°56'0 0.0 20.6
2018-Apr-17 01:45N 33°08' W 051°56'0 0.0 20.8
2018-Apr-17 01:15N 33°08' W 051°56'1 2.4 20.8
2018-Apr-17 01:00N 33°07' W 051°56'0 0.0 20.8
2018-Apr-17 00:15N 33°07' W 051°56'1 2.0 20.9
2018-Apr-17 00:00N 33°07' W 051°56'1 1.6 20.9
2018-Apr-16 23:30N 33°07' W 051°55'1 2.0 21.0
2018-Apr-16 23:15N 33°07' W 051°56'1 0.7 21.0
2018-Apr-16 22:30N 33°07' W 051°56'0 0.0 21.0
2018-Apr-16 22:15N 33°07' W 051°56'1 2.3 21.0
2018-Apr-16 21:45N 33°06' W 051°55'0 0.0 21.0
2018-Apr-16 21:30N 33°06' W 051°55'2 2.2 21.0
2018-Apr-16 20:45N 33°05' W 051°57'0 0.0 21.1
2018-Apr-16 20:30N 33°05' W 051°57'0 0.0 21.1
2018-Apr-16 19:00N 33°05' W 051°57'0 0.0 21.1
2018-Apr-16 18:45N 33°05' W 051°57'0 0.0 21.1
2018-Apr-16 17:15N 33°05' W 051°57'1 0.5 21.0
2018-Apr-16 14:30N 33°04' W 051°56'0 0.0 20.9
2018-Apr-16 13:45N 33°04' W 051°56'0 0.0 20.8
2018-Apr-16 13:00N 33°04' W 051°56'1 3.1 20.8
2018-Apr-16 12:45N 33°04' W 051°57'0 0.0 20.8
2018-Apr-16 12:15N 33°04' W 051°57'1 2.0 20.7
2018-Apr-16 12:00N 33°04' W 051°58'1 3.1 20.7
2018-Apr-16 11:45N 33°03' W 051°58'0 0.0 20.7
2018-Apr-16 11:15N 33°03' W 051°58'0 0.0 20.7
2018-Apr-16 11:00N 33°03' W 051°58'1 1.0 20.7
2018-Apr-16 10:15N 33°02' W 051°59'1 2.0 20.6
2018-Apr-16 10:00N 33°02' W 051°58'0 0.0 20.6
2018-Apr-16 09:30N 33°02' W 051°58'1 3.1 20.6
2018-Apr-16 09:15N 33°02' W 051°59'0 0.0 20.6
2018-Apr-16 08:30N 33°02' W 051°59'1 2.0 20.6
2018-Apr-16 08:15N 33°02' W 051°59'0 0.0 20.6
2018-Apr-16 07:45N 33°02' W 051°59'415.4 20.6
2018-Apr-16 07:30N 32°59' W 052°03'0 0.0 20.6
2018-Apr-16 06:00N 32°59' W 052°03'0 0.0 20.6
2018-Apr-16 05:45N 32°59' W 052°03'0 0.0 20.6
2018-Apr-16 02:15N 32°59' W 052°03'0 0.0 20.6
2018-Apr-16 02:00N 32°59' W 052°03'0 0.0 20.6
2018-Apr-16 01:30N 32°59' W 052°03'2 7.7 20.6
2018-Apr-16 01:15N 32°58' W 052°05'1 1.0 20.6
2018-Apr-16 00:30N 32°58' W 052°04'0 0.0 20.6
2018-Apr-16 00:15N 32°58' W 052°04'1 1.6 20.6
2018-Apr-15 23:45N 32°58' W 052°04'1 2.0 20.6
2018-Apr-15 23:30N 32°58' W 052°04'1 1.6 20.6
2018-Apr-15 22:45N 32°57' W 052°04'0 0.0 20.6
2018-Apr-15 22:00N 32°57' W 052°04'0 0.0 20.7
2018-Apr-15 21:45N 32°57' W 052°04'1 1.2 20.7
2018-Apr-15 21:15N 32°58' W 052°04'1 3.1 20.7
2018-Apr-15 21:00N 32°57' W 052°05'0 0.0 20.7
2018-Apr-15 19:15N 32°57' W 052°05'1 4.0 20.8
2018-Apr-15 19:00N 32°57' W 052°06'0 0.0 20.8
2018-Apr-15 17:30N 32°57' W 052°06'0 0.0 20.8
2018-Apr-15 17:15N 32°57' W 052°06'2 0.8 20.8
2018-Apr-15 14:45N 32°56' W 052°08'0 0.0 20.7
2018-Apr-15 14:15N 32°56' W 052°08'1 4.0 20.7
2018-Apr-15 14:00N 32°56' W 052°10'0 0.0 20.7
2018-Apr-15 13:15N 32°56' W 052°10'0 0.0 20.6
2018-Apr-15 13:00N 32°56' W 052°10'1 1.6 20.6
2018-Apr-15 12:30N 32°56' W 052°10'0 0.0 20.5
2018-Apr-15 12:15N 32°56' W 052°10'1 2.4 20.5
2018-Apr-15 12:00N 32°56' W 052°10'2 4.7 20.5
2018-Apr-15 11:30N 32°55' W 052°13'1 0.5 20.4
2018-Apr-15 10:30N 32°55' W 052°12'0 0.0 20.4
2018-Apr-15 10:15N 32°55' W 052°12'0 0.0 20.4
2018-Apr-15 10:00N 32°55' W 052°12'1 2.0 20.4
2018-Apr-15 09:45N 32°55' W 052°13'1 2.4 20.4
2018-Apr-15 09:30N 32°55' W 052°13'0 0.0 20.4
2018-Apr-15 09:15N 32°55' W 052°13'0 0.0 20.4
2018-Apr-15 09:00N 32°55' W 052°13'0 0.0 20.4
2018-Apr-15 08:45N 32°55' W 052°13'5 5.1 20.4
2018-Apr-15 07:45N 32°52' W 052°18'0 0.0 20.4
2018-Apr-15 07:15N 32°52' W 052°18'0 0.0 20.4
2018-Apr-15 06:00N 32°52' W 052°18'1 0.1 20.5
2018-Apr-15 01:45N 32°52' W 052°18'0 0.0 20.6
2018-Apr-15 01:00N 32°52' W 052°18'1 4.0 20.6
2018-Apr-15 00:45N 32°52' W 052°19'0 0.0 20.6
2018-Apr-15 00:15N 32°52' W 052°19'1 2.0 20.6
2018-Apr-15 00:00N 32°52' W 052°19'1 2.0 20.6
2018-Apr-14 23:45N 32°52' W 052°19'1 1.6 20.7
2018-Apr-14 23:15N 32°51' W 052°20'0 0.0 20.7
2018-Apr-14 23:00N 32°51' W 052°20'0 0.0 20.7
2018-Apr-14 22:00N 32°51' W 052°20'0 0.0 20.7
2018-Apr-14 21:45N 32°51' W 052°20'0 0.0 20.8
2018-Apr-14 21:30N 32°51' W 052°20'0 0.0 20.8
2018-Apr-14 20:00N 32°51' W 052°20'0 0.0 20.9
2018-Apr-14 19:45N 32°51' W 052°20'0 0.0 20.9
2018-Apr-14 19:30N 32°51' W 052°20'1 2.0 20.9
2018-Apr-14 19:15N 32°51' W 052°20'2 1.0 20.9
2018-Apr-14 17:45N 32°52' W 052°22'0 0.0 20.8
2018-Apr-14 17:30N 32°52' W 052°22'1 0.3 20.8
2018-Apr-14 14:30N 32°52' W 052°22'0 0.0 20.4
2018-Apr-14 13:30N 32°52' W 052°22'1 1.6 20.4
2018-Apr-14 13:00N 32°52' W 052°23'1 2.4 20.4
2018-Apr-14 12:45N 32°52' W 052°23'0 0.0 20.4
2018-Apr-14 12:30N 32°52' W 052°23'1 3.1 20.4
2018-Apr-14 12:15N 32°52' W 052°23'1 2.0 20.4
2018-Apr-14 12:00N 32°52' W 052°23'2 6.5 20.4
2018-Apr-14 11:45N 32°52' W 052°25'1 0.5 20.4
2018-Apr-14 10:45N 32°52' W 052°25'1 1.0 20.4
2018-Apr-14 10:15N 32°52' W 052°26'0 0.0 20.4
2018-Apr-14 09:30N 32°52' W 052°26'1 4.0 20.4
2018-Apr-14 09:15N 32°52' W 052°27'0 0.0 20.4
2018-Apr-14 08:30N 32°52' W 052°27'0 0.0 20.4
2018-Apr-14 08:00N 32°52' W 052°27'2 6.3 20.4
2018-Apr-14 07:45N 32°50' W 052°28'2 1.0 20.4
2018-Apr-14 06:15N 32°52' W 052°29'1 0.1 20.4
2018-Apr-14 01:15N 32°52' W 052°30'1 2.4 20.5
2018-Apr-14 01:00N 32°52' W 052°30'0 0.0 20.5
2018-Apr-14 00:30N 32°52' W 052°30'0 0.0 20.5
2018-Apr-14 00:15N 32°52' W 052°30'0 0.0 20.5
2018-Apr-14 00:00N 32°52' W 052°30'1 3.1 20.5
2018-Apr-13 23:45N 32°53' W 052°31'0 0.0 20.5
2018-Apr-13 23:30N 32°53' W 052°31'0 0.0 20.5
2018-Apr-13 22:15N 32°53' W 052°31'0 0.0
2018-Apr-13 22:00N 32°53' W 052°31'1 5.2
2018-Apr-13 21:45N 32°54' W 052°30'2 1.3
2018-Apr-13 20:30N 32°53' W 052°32'0 0.0 20.7
2018-Apr-13 20:15N 32°53' W 052°32'1 1.0 20.7
2018-Apr-13 19:30N 32°54' W 052°32'0 0.0 20.7
2018-Apr-13 18:00N 32°54' W 052°32'311.3 20.7
2018-Apr-13 17:45N 32°56' W 052°34'0 0.0 20.7
2018-Apr-13 15:00N 32°56' W 052°34'0 0.0 20.6
2018-Apr-13 14:45N 32°56' W 052°34'1 1.6 20.6
2018-Apr-13 14:00N 32°56' W 052°35'1 2.0 20.6
2018-Apr-13 13:45N 32°56' W 052°36'0 0.0 20.6
2018-Apr-13 13:15N 32°56' W 052°36'0 0.0 20.5
2018-Apr-13 13:00N 32°56' W 052°36'1 2.3 20.5
2018-Apr-13 12:30N 32°55' W 052°37'0 0.0 20.4
2018-Apr-13 12:15N 32°55' W 052°37'0 0.0 20.4
2018-Apr-13 12:00N 32°55' W 052°37'0 0.0 20.4
2018-Apr-13 11:00N 32°55' W 052°37'1 2.0 20.4
2018-Apr-13 10:45N 32°55' W 052°37'0 0.0 20.4
2018-Apr-13 10:30N 32°55' W 052°37'1 2.0 20.4
2018-Apr-13 10:00N 32°55' W 052°38'1 2.0 20.4
2018-Apr-13 09:45N 32°55' W 052°37'1 0.9 20.4
2018-Apr-13 08:15N 32°56' W 052°38'0 0.0 20.4
2018-Apr-13 08:00N 32°56' W 052°38'2 1.4 20.4
2018-Apr-13 06:30N 32°57' W 052°40'0 0.0 20.4
2018-Apr-13 06:15N 32°57' W 052°40'1 0.1 20.4
2018-Apr-13 01:30N 32°58' W 052°40'1 1.0 20.5
2018-Apr-13 00:45N 32°58' W 052°41'0 0.0 20.5
2018-Apr-13 00:15N 32°58' W 052°41'2 6.0 20.5
2018-Apr-13 00:00N 32°58' W 052°43'0 0.0 20.5
2018-Apr-12 23:45N 32°58' W 052°43'0 0.0 20.5
2018-Apr-12 23:15N 32°58' W 052°43'0 0.0 20.5
2018-Apr-12 23:00N 32°58' W 052°43'1 2.4 20.5
2018-Apr-12 22:45N 32°59' W 052°43'1 3.1 20.5
2018-Apr-12 22:30N 32°58' W 052°42'1 4.0 20.5
2018-Apr-12 22:15N 32°58' W 052°43'0 0.0 20.5
2018-Apr-12 21:00N 32°58' W 052°43'2 8.1 20.5
2018-Apr-12 20:45N 32°58' W 052°46'2 1.6 20.5
2018-Apr-12 19:45N 32°58' W 052°47'0 0.0 20.5
2018-Apr-12 19:30N 32°58' W 052°47'6 3.7 20.5
2018-Apr-12 18:00N 32°57' W 052°54'2 0.5 20.5
2018-Apr-12 15:00N 32°56' W 052°55'0 0.0 20.5
2018-Apr-12 14:15N 32°56' W 052°55'1 1.0 20.4
2018-Apr-12 13:30N 32°55' W 052°56'1 1.0 20.4
2018-Apr-12 12:45N 32°56' W 052°55'311.2 20.4
2018-Apr-12 12:30N 32°55' W 052°58'0 0.0 20.4
2018-Apr-12 12:00N 32°55' W 052°58'0 0.0 20.4
2018-Apr-12 11:45N 32°55' W 052°58'0 0.0 20.4
2018-Apr-12 11:15N 32°55' W 052°58'2 8.4 20.4
2018-Apr-12 11:00N 32°54' W 053°01'1 1.6 20.4
2018-Apr-12 10:30N 32°53' W 053°01'1 3.1 20.4
2018-Apr-12 10:15N 32°54' W 053°01'1 1.0 20.4
2018-Apr-12 09:30N 32°53' W 053°01'1 0.8 20.4
2018-Apr-12 08:45N 32°54' W 053°01'0 0.0 20.4
2018-Apr-12 08:30N 32°54' W 053°01'2 7.7 20.4
2018-Apr-12 08:15N 32°53' W 053°03'0 0.0 20.4
2018-Apr-12 07:15N 32°53' W 053°03'0 0.0 20.4
2018-Apr-12 06:45N 32°53' W 053°03'416.1 20.4
2018-Apr-12 06:30N 32°53' W 053°08'0 0.0 20.4
2018-Apr-12 01:15N 32°53' W 053°08'2 6.5 20.6
2018-Apr-12 01:00N 32°53' W 053°10'0 0.0 20.6
2018-Apr-12 00:15N 32°53' W 053°10'1 1.6 20.6
2018-Apr-11 23:30N 32°55' W 053°10'0 0.0 20.7
2018-Apr-11 23:15N 32°55' W 053°10'2 3.1 20.7
2018-Apr-11 22:45N 32°53' W 053°11'1 3.1 20.7
2018-Apr-11 22:30N 32°54' W 053°11'2 2.0 20.7
2018-Apr-11 21:45N 32°54' W 053°13'0 0.0 20.7
2018-Apr-11 21:30N 32°54' W 053°13'0 0.0 20.7
2018-Apr-11 21:15N 32°54' W 053°13'1 4.0 20.7
2018-Apr-11 21:00N 32°54' W 053°14'0 0.0 20.7
2018-Apr-11 20:00N 32°54' W 053°14'2 6.5 20.7
2018-Apr-11 19:45N 32°55' W 053°16'5 3.4 20.7
2018-Apr-11 18:15N 32°55' W 053°22'0 0.0 20.7
2018-Apr-11 18:00N 32°55' W 053°22'1 0.2 20.7
2018-Apr-11 14:30N 32°54' W 053°22'2 3.0 20.6
2018-Apr-11 14:00N 32°54' W 053°24'0 0.0 20.6
2018-Apr-11 13:45N 32°54' W 053°24'1 1.0 20.6
2018-Apr-11 13:00N 32°55' W 053°23'2 6.3 20.6
2018-Apr-11 12:45N 32°53' W 053°25'1 2.0 20.6
2018-Apr-11 12:15N 32°53' W 053°26'0 0.0 20.6
2018-Apr-11 12:00N 32°53' W 053°26'0 0.0 20.6
2018-Apr-11 11:30N 32°53' W 053°26'2 6.0 20.6
2018-Apr-11 11:15N 32°53' W 053°28'0 0.0 20.6
2018-Apr-11 11:00N 32°53' W 053°28'0 0.0 20.6
2018-Apr-11 10:00N 32°53' W 053°28'1 2.0 20.5
2018-Apr-11 09:45N 32°53' W 053°28'0 0.0 20.5
2018-Apr-11 09:30N 32°53' W 053°28'1 4.7 20.5
2018-Apr-11 09:15N 32°54' W 053°29'1 1.0 20.5
2018-Apr-11 08:30N 32°55' W 053°30'0 0.0 20.5
2018-Apr-11 07:45N 32°55' W 053°30'0 0.0 20.5
2018-Apr-11 07:30N 32°55' W 053°30'1 2.3 20.5
2018-Apr-11 07:00N 32°54' W 053°31'313.0 20.5
2018-Apr-11 06:45N 32°55' W 053°35'0 0.0 20.5
2018-Apr-11 02:15N 32°55' W 053°35'1 0.7 20.5
2018-Apr-11 01:30N 32°55' W 053°35'0 0.0 20.5
2018-Apr-11 00:30N 32°55' W 053°35'1 1.2 20.6
2018-Apr-11 00:00N 32°56' W 053°35'1 3.1 20.6
2018-Apr-10 23:45N 32°56' W 053°36'2 2.2 20.6
2018-Apr-10 23:00N 32°57' W 053°38'0 0.0 20.6
2018-Apr-10 22:45N 32°57' W 053°38'   20.6

Dump ship's entire track history